Pires Coelho — CUPM6 — position and weather

sailwx.info

Track history (hours):
 
Tides and Currents Weather Stations Pressure Air Temp Water Temp Dewpoint Dewpoint Depression Visibility Wind Speed Wind Dir Waves Ship Positions

Pires Coelho

Last reported at 2017-Apr-28 04:00 UTC. Time now 2017-Apr-28 04:16 UTC.
Position N 36°58' W 008°38'.

Length 27 m.

Type: Fishing. MMSI: 263236000.

Date/timePositionNaut miles runAvg speedWind from/ knotsBaromVisibWave heightAir tempDewpointWater temp
2017-Apr-28 04:00N 36°58' W 008°38'4 7.4
2017-Apr-28 03:30N 37°01' W 008°36'4 7.3
2017-Apr-28 03:00N 37°05' W 008°33'4 6.6
2017-Apr-28 02:27N 37°08' W 008°32'0 0.0
2017-Apr-28 01:56N 37°08' W 008°32'0 0.0
2017-Apr-28 01:26N 37°08' W 008°32'0 0.0
2017-Apr-28 00:58N 37°08' W 008°32'0 0.0
2017-Apr-28 00:28N 37°08' W 008°32'0 0.0
2017-Apr-27 23:58N 37°08' W 008°32'0 0.0
2017-Apr-27 23:30N 37°08' W 008°32'0 0.0
2017-Apr-27 22:54N 37°08' W 008°32'0 0.0
2017-Apr-27 22:23N 37°08' W 008°32'0 0.0
2017-Apr-27 21:56N 37°08' W 008°32'0 0.0
2017-Apr-27 21:30N 37°08' W 008°32'0 0.0
2017-Apr-27 20:54N 37°08' W 008°32'0 0.0
2017-Apr-27 20:29N 37°08' W 008°32'0 0.2
2017-Apr-27 20:00N 37°08' W 008°32'0 0.0
2017-Apr-27 19:29N 37°08' W 008°32'0 0.1
2017-Apr-27 19:00N 37°08' W 008°32'4 8.6
2017-Apr-27 18:29N 37°04' W 008°32'5 9.8
2017-Apr-27 17:59N 36°59' W 008°34'5 9.5
2017-Apr-27 17:30N 36°54' W 008°35'5 9.1
2017-Apr-27 16:59N 36°50' W 008°37'1 1.4
2017-Apr-27 16:28N 36°49' W 008°36'2 3.6
2017-Apr-27 15:52N 36°50' W 008°39'1 2.6
2017-Apr-27 15:30N 36°49' W 008°38'1 2.9
2017-Apr-27 15:00N 36°49' W 008°36'1 0.6
2017-Apr-27 13:59N 36°48' W 008°36'2 3.0
2017-Apr-27 13:21N 36°49' W 008°38'1 2.9
2017-Apr-27 13:00N 36°49' W 008°39'1 3.0
2017-Apr-27 12:30N 36°49' W 008°41'1 3.0
2017-Apr-27 12:00N 36°49' W 008°43'1 2.8
2017-Apr-27 11:30N 36°49' W 008°45'1 2.8
2017-Apr-27 10:59N 36°50' W 008°47'1 2.8
2017-Apr-27 10:28N 36°50' W 008°48'1 1.9
2017-Apr-27 10:00N 36°49' W 008°49'3 2.2
2017-Apr-27 08:25N 36°49' W 008°45'1 2.9
2017-Apr-27 07:56N 36°49' W 008°43'1 2.9
2017-Apr-27 07:28N 36°49' W 008°42'9 2.8
2017-Apr-27 04:21N 36°47' W 008°31'1 3.0
2017-Apr-27 04:00N 36°47' W 008°29'8 2.0
2017-Apr-27 00:02N 36°46' W 008°20'0 2.9
2017-Apr-26 23:59N 36°46' W 008°20'6 3.0
2017-Apr-26 22:01N 36°47' W 008°27'1 3.1
2017-Apr-26 21:50N 36°47' W 008°28'1 3.0
2017-Apr-26 21:27N 36°47' W 008°29'1 2.8
2017-Apr-26 20:56N 36°47' W 008°31'2 3.9
2017-Apr-26 20:25N 36°48' W 008°33'1 1.6
2017-Apr-26 20:00N 36°48' W 008°34'2 2.5
2017-Apr-26 19:04N 36°48' W 008°36'0 2.9
2017-Apr-26 18:57N 36°48' W 008°37'2 3.0
2017-Apr-26 18:18N 36°48' W 008°39'1 2.9
2017-Apr-26 18:00N 36°48' W 008°40'2 3.0
2017-Apr-26 17:30N 36°49' W 008°42'1 2.9
2017-Apr-26 17:00N 36°49' W 008°40'1 2.9
2017-Apr-26 16:30N 36°49' W 008°38'1 2.9
2017-Apr-26 16:01N 36°49' W 008°37'2 3.4
2017-Apr-26 15:30N 36°48' W 008°35'2 0.2
2017-Apr-26 04:51N 36°51' W 008°34'3 9.2
2017-Apr-26 04:30N 36°54' W 008°34'5 9.4
2017-Apr-26 04:01N 36°58' W 008°33'5 9.2
2017-Apr-26 03:30N 37°03' W 008°32'5 9.3
2017-Apr-26 03:01N 37°07' W 008°32'0 0.9
2017-Apr-26 02:27N 37°08' W 008°32'0 0.0
2017-Apr-26 02:00N 37°08' W 008°32'0 0.0
2017-Apr-26 01:30N 37°08' W 008°32'0 0.0
2017-Apr-26 00:58N 37°08' W 008°32'0 0.0
2017-Apr-26 00:28N 37°08' W 008°32'0 0.0
2017-Apr-25 23:58N 37°08' W 008°32'0 0.0
2017-Apr-25 23:29N 37°08' W 008°32'0 0.0
2017-Apr-25 22:50N 37°08' W 008°32'0 0.0
2017-Apr-25 22:26N 37°08' W 008°32'0 0.0
2017-Apr-25 21:56N 37°08' W 008°32'0 0.0
2017-Apr-25 21:29N 37°08' W 008°32'0 0.0
2017-Apr-25 20:59N 37°08' W 008°32'0 0.0
2017-Apr-25 20:29N 37°08' W 008°32'0 0.0
2017-Apr-25 19:59N 37°08' W 008°32'0 0.0
2017-Apr-25 19:30N 37°08' W 008°32'0 0.0
2017-Apr-25 18:58N 37°08' W 008°32'4 8.2
2017-Apr-25 18:31N 37°04' W 008°32'5 9.5
2017-Apr-25 18:00N 36°60' W 008°35'5 9.6
2017-Apr-25 17:31N 36°56' W 008°37'5 9.1
2017-Apr-25 17:00N 36°51' W 008°40'2 4.0
2017-Apr-25 16:30N 36°50' W 008°41'1 2.0
2017-Apr-25 16:01N 36°49' W 008°42'1 2.6
2017-Apr-25 15:30N 36°49' W 008°44'1 2.7
2017-Apr-25 15:00N 36°49' W 008°45'3 2.8
2017-Apr-25 13:49N 36°49' W 008°49'1 2.9
2017-Apr-25 13:29N 36°49' W 008°51'1 3.0
2017-Apr-25 13:00N 36°49' W 008°52'1 2.9
2017-Apr-25 12:30N 36°49' W 008°54'3 0.9
2017-Apr-25 09:02N 36°48' W 008°58'1 2.9
2017-Apr-25 08:47N 36°48' W 008°57'1 2.9
2017-Apr-25 08:17N 36°49' W 008°55'1 2.9
2017-Apr-25 08:00N 36°49' W 008°54'2 2.9
2017-Apr-25 07:27N 36°49' W 008°52'1 2.9
2017-Apr-25 07:00N 36°49' W 008°51'1 2.9
2017-Apr-25 06:29N 36°49' W 008°49'1 2.8
2017-Apr-25 06:00N 36°49' W 008°47'2 3.2
2017-Apr-25 05:29N 36°48' W 008°45'2 4.7
2017-Apr-25 04:57N 36°46' W 008°47'0 0.2
2017-Apr-25 04:29N 36°46' W 008°46'1 2.9
2017-Apr-25 04:00N 36°47' W 008°48'3 2.9
2017-Apr-25 03:05N 36°47' W 008°52'0 2.9
2017-Apr-25 03:00N 36°47' W 008°52'4 0.9
2017-Apr-24 22:48N 36°47' W 008°56'1 3.0
2017-Apr-24 22:30N 36°47' W 008°55'1 2.9
2017-Apr-24 22:00N 36°47' W 008°53'1 3.0
2017-Apr-24 21:30N 36°46' W 008°52'2 3.0
2017-Apr-24 20:59N 36°46' W 008°50'2 3.9
2017-Apr-24 20:31N 36°47' W 008°47'3 5.0
2017-Apr-24 19:58N 36°49' W 008°49'0 0.6
2017-Apr-24 19:30N 36°49' W 008°49'1 2.9
2017-Apr-24 19:00N 36°49' W 008°51'1 2.9
2017-Apr-24 18:30N 36°49' W 008°53'1 2.9
2017-Apr-24 18:00N 36°49' W 008°55'1 0.1
2017-Apr-24 12:41N 36°49' W 008°54'1 2.9
2017-Apr-24 12:15N 36°49' W 008°52'1 3.0
2017-Apr-24 12:00N 36°49' W 008°51'1 2.9
2017-Apr-24 11:30N 36°49' W 008°50'2 3.0
2017-Apr-24 11:01N 36°49' W 008°48'1 1.1
2017-Apr-24 10:27N 36°48' W 008°48'0 0.7
2017-Apr-24 10:01N 36°48' W 008°48'1 2.8
2017-Apr-24 09:29N 36°48' W 008°50'1 2.8
2017-Apr-24 09:00N 36°49' W 008°51'9 2.8
2017-Apr-24 05:53N 36°47' W 009°02'1 0.8
2017-Apr-24 04:53N 36°47' W 009°03'2 3.0
2017-Apr-24 04:22N 36°48' W 009°04'2 6.4
2017-Apr-24 04:00N 36°50' W 009°05'4 6.8
2017-Apr-24 03:25N 36°54' W 009°07'4 9.3
2017-Apr-24 03:01N 36°57' W 009°09'4 8.7
2017-Apr-24 02:30N 37°02' W 009°10'4 8.7
2017-Apr-24 02:00N 37°06' W 009°11'5 9.1
2017-Apr-24 01:29N 37°10' W 009°13'5 9.1
2017-Apr-24 00:57N 37°15' W 009°15'4 9.2
2017-Apr-24 00:31N 37°19' W 009°16'5 9.2
2017-Apr-24 00:00N 37°23' W 009°17'5 9.4
2017-Apr-23 23:28N 37°28' W 009°19'4 9.3
2017-Apr-23 23:00N 37°32' W 009°20'5 9.3
2017-Apr-23 22:30N 37°37' W 009°21'5 9.3
2017-Apr-23 21:59N 37°42' W 009°23'4 9.1
2017-Apr-23 21:30N 37°46' W 009°24'5 9.1
2017-Apr-23 21:00N 37°50' W 009°25'5 9.3
2017-Apr-23 20:30N 37°55' W 009°27'5 9.3
2017-Apr-23 20:00N 37°59' W 009°28'5 9.5
2017-Apr-23 19:30N 38°04' W 009°29'5 9.7
2017-Apr-23 19:00N 38°09' W 009°31'5 9.5
2017-Apr-23 18:30N 38°13' W 009°33'5 9.5
2017-Apr-23 18:00N 38°18' W 009°34'5 9.7
2017-Apr-23 17:30N 38°23' W 009°36'5 9.6
2017-Apr-23 17:00N 38°27' W 009°37'5 9.4
2017-Apr-23 16:30N 38°32' W 009°39'2 4.0
2017-Apr-23 16:00N 38°34' W 009°40'1 1.5
2017-Apr-23 15:30N 38°34' W 009°40'2 3.0
2017-Apr-23 15:00N 38°36' W 009°40'2 3.1
2017-Apr-23 14:31N 38°37' W 009°40'3 2.9
2017-Apr-23 13:30N 38°40' W 009°42'3 6.6
2017-Apr-23 13:00N 38°42' W 009°45'2 4.7
2017-Apr-23 12:30N 38°43' W 009°47'1 2.1
2017-Apr-23 12:01N 38°44' W 009°48'2 3.3
2017-Apr-23 11:28N 38°45' W 009°50'4 8.1
2017-Apr-23 11:00N 38°46' W 009°55'1 1.8
2017-Apr-23 10:30N 38°46' W 009°56'1 2.0
2017-Apr-23 10:00N 38°45' W 009°56'1 2.4
2017-Apr-23 09:29N 38°44' W 009°55'3 5.6
2017-Apr-23 09:00N 38°45' W 009°52'2 3.1
2017-Apr-23 08:30N 38°45' W 009°50'1 3.0
2017-Apr-23 08:01N 38°45' W 009°48'1 2.8
2017-Apr-23 07:30N 38°43' W 009°47'2 3.1
2017-Apr-23 07:00N 38°43' W 009°45'1 2.3
2017-Apr-23 06:30N 38°42' W 009°44'1 2.5
2017-Apr-23 06:00N 38°42' W 009°43'2 5.0
2017-Apr-23 05:30N 38°40' W 009°40'4 7.7
2017-Apr-23 05:00N 38°38' W 009°36'4 7.4
2017-Apr-23 04:30N 38°35' W 009°33'4 7.6
2017-Apr-23 04:00N 38°33' W 009°29'4 7.8
2017-Apr-23 03:30N 38°31' W 009°25'4 7.9
2017-Apr-23 03:00N 38°28' W 009°21'4 8.3
2017-Apr-23 02:29N 38°26' W 009°16'4 9.2
2017-Apr-23 02:00N 38°24' W 009°11'4 8.7
2017-Apr-23 01:30N 38°26' W 009°07'0 0.2
2017-Apr-23 01:00N 38°26' W 009°07'0 0.0
2017-Apr-23 00:28N 38°26' W 009°07'0 0.0
2017-Apr-22 23:58N 38°26' W 009°07'0 0.0
2017-Apr-22 23:30N 38°26' W 009°07'0 0.0
2017-Apr-22 22:58N 38°26' W 009°07'0 0.0
2017-Apr-22 22:30N 38°26' W 009°07'0 0.0
2017-Apr-22 21:55N 38°26' W 009°07'0 0.0
2017-Apr-22 21:28N 38°26' W 009°07'0 0.0
2017-Apr-22 20:53N 38°26' W 009°07'0 0.0
2017-Apr-22 20:29N 38°26' W 009°07'0 0.0
2017-Apr-22 19:59N 38°26' W 009°07'0 0.0
2017-Apr-22 19:27N 38°26' W 009°07'0 0.0
2017-Apr-22 19:00N 38°26' W 009°07'0 0.0
2017-Apr-22 18:30N 38°26' W 009°07'0 0.0
2017-Apr-22 18:00N 38°26' W 009°07'0 0.0
2017-Apr-22 17:30N 38°26' W 009°07'0 0.0
2017-Apr-22 17:00N 38°26' W 009°07'0 0.0
2017-Apr-22 16:29N 38°26' W 009°07'0 0.0
2017-Apr-22 15:57N 38°26' W 009°07'0 0.0
2017-Apr-22 15:27N 38°26' W 009°07'0 0.0
2017-Apr-22 14:58N 38°26' W 009°07'0 0.0
2017-Apr-22 14:25N 38°26' W 009°07'0 0.0
2017-Apr-22 13:23N 38°26' W 009°07'0 0.0
2017-Apr-22 12:59N 38°26' W 009°07'0 0.1
2017-Apr-22 12:28N 38°26' W 009°07'0 0.0
2017-Apr-22 11:58N 38°26' W 009°07'0 0.0
2017-Apr-22 11:30N 38°26' W 009°07'0 0.0
2017-Apr-22 10:58N 38°26' W 009°07'0 0.0
2017-Apr-22 10:28N 38°26' W 009°07'0 0.0
2017-Apr-22 09:58N 38°26' W 009°07'0 0.0
2017-Apr-22 09:28N 38°26' W 009°07'0 0.0
2017-Apr-22 08:59N 38°26' W 009°07'0 0.0
2017-Apr-22 08:28N 38°26' W 009°07'0 0.0
2017-Apr-22 07:55N 38°26' W 009°07'0 0.0
2017-Apr-22 07:26N 38°26' W 009°07'0 0.0
2017-Apr-22 06:59N 38°26' W 009°07'0 0.0
2017-Apr-22 06:29N 38°26' W 009°07'0 0.0
2017-Apr-22 05:56N 38°26' W 009°07'0 0.0
2017-Apr-22 05:25N 38°26' W 009°07'0 0.0
2017-Apr-22 04:53N 38°26' W 009°07'0 0.0
2017-Apr-22 04:29N 38°26' W 009°07'0 0.0
2017-Apr-22 03:53N 38°26' W 009°07'0 0.0
2017-Apr-22 03:29N 38°26' W 009°07'0 0.0
2017-Apr-22 02:56N 38°26' W 009°07'0 0.0
2017-Apr-22 02:30N 38°26' W 009°07'0 0.0
2017-Apr-22 02:00N 38°26' W 009°07'0 0.0
2017-Apr-22 01:19N 38°26' W 009°07'0 0.0
2017-Apr-22 00:58N 38°26' W 009°07'0 0.0
2017-Apr-22 00:22N 38°26' W 009°07'0 0.0
2017-Apr-22 00:00N 38°26' W 009°07'0 0.1
2017-Apr-21 23:26N 38°26' W 009°07'1 1.9
2017-Apr-21 23:00N 38°26' W 009°06'4 8.9
2017-Apr-21 22:30N 38°24' W 009°12'4 8.9
2017-Apr-21 22:00N 38°26' W 009°17'5 9.6
2017-Apr-21 21:30N 38°29' W 009°22'5 9.8
2017-Apr-21 21:00N 38°32' W 009°27'5 9.8
2017-Apr-21 20:30N 38°35' W 009°31'5 9.5
2017-Apr-21 20:00N 38°38' W 009°36'4 8.8
2017-Apr-21 19:30N 38°40' W 009°41'0 0.9
2017-Apr-21 19:00N 38°41' W 009°41'1 2.7
2017-Apr-21 18:30N 38°42' W 009°42'1 2.7
2017-Apr-21 18:00N 38°42' W 009°44'1 2.8
2017-Apr-21 17:31N 38°43' W 009°46'1 2.9
2017-Apr-21 17:01N 38°43' W 009°47'1 2.9
2017-Apr-21 16:30N 38°45' W 009°48'2 3.2
2017-Apr-21 16:00N 38°45' W 009°50'0 0.6
2017-Apr-21 15:30N 38°45' W 009°50'1 2.9
2017-Apr-21 15:01N 38°45' W 009°48'1 2.9
2017-Apr-21 14:30N 38°43' W 009°47'3 2.8
2017-Apr-21 13:30N 38°42' W 009°44'1 2.7
2017-Apr-21 13:00N 38°42' W 009°42'2 3.2
2017-Apr-21 12:30N 38°40' W 009°41'0 0.3
2017-Apr-21 12:01N 38°40' W 009°41'1 2.4
2017-Apr-21 11:30N 38°41' W 009°42'1 2.9
2017-Apr-21 11:00N 38°42' W 009°43'1 2.8
2017-Apr-21 10:30N 38°42' W 009°45'2 3.2
2017-Apr-21 10:01N 38°43' W 009°47'3 5.7
2017-Apr-21 09:30N 38°45' W 009°50'0 0.2
2017-Apr-21 09:00N 38°45' W 009°50'1 2.8
2017-Apr-21 08:30N 38°44' W 009°48'1 2.8
2017-Apr-21 08:01N 38°43' W 009°47'1 2.8
2017-Apr-21 07:30N 38°43' W 009°45'1 2.7
2017-Apr-21 07:00N 38°42' W 009°44'1 2.8
2017-Apr-21 06:31N 38°42' W 009°42'2 3.3
2017-Apr-21 06:01N 38°40' W 009°41'2 4.5
2017-Apr-21 05:31N 38°39' W 009°39'4 7.3
2017-Apr-21 05:00N 38°36' W 009°36'4 7.2
2017-Apr-21 04:30N 38°33' W 009°33'4 8.5
2017-Apr-21 04:01N 38°30' W 009°30'5 9.2
2017-Apr-21 03:31N 38°26' W 009°26'5 9.2
2017-Apr-21 03:01N 38°22' W 009°22'5 9.6
2017-Apr-21 02:30N 38°19' W 009°18'5 9.7
2017-Apr-21 02:01N 38°15' W 009°15'510.0
2017-Apr-21 01:31N 38°11' W 009°11'510.1
2017-Apr-21 01:01N 38°07' W 009°07'510.1
2017-Apr-21 00:31N 38°03' W 009°02'5 9.8
2017-Apr-21 00:01N 37°60' W 008°58'510.0
2017-Apr-20 23:31N 37°56' W 008°54'2 3.5
2017-Apr-20 22:59N 37°57' W 008°52'0 0.0
2017-Apr-20 22:30N 37°57' W 008°52'0 0.0
2017-Apr-20 21:58N 37°57' W 008°52'0 0.0
2017-Apr-20 21:28N 37°57' W 008°52'0 0.0
2017-Apr-20 20:59N 37°57' W 008°52'0 0.0
2017-Apr-20 20:30N 37°57' W 008°52'0 0.2
2017-Apr-20 20:00N 37°57' W 008°52'0 1.0
2017-Apr-20 19:30N 37°57' W 008°52'5 9.7
2017-Apr-20 19:00N 37°53' W 008°56'5 9.8
2017-Apr-20 18:30N 37°49' W 009°00'5 9.8
2017-Apr-20 18:00N 37°45' W 009°04'5 9.6
2017-Apr-20 17:30N 37°42' W 009°08'510.1
2017-Apr-20 17:01N 37°38' W 009°13'510.2
2017-Apr-20 16:30N 37°35' W 009°17'6 0.3
2017-Apr-19 19:58N 37°30' W 009°13'4 8.9
2017-Apr-19 19:29N 37°29' W 009°07'0 0.9
2017-Apr-19 19:00N 37°29' W 009°08'1 2.9
2017-Apr-19 18:30N 37°27' W 009°08'0 0.1
2017-Apr-19 15:22N 37°27' W 009°08'2 1.6
2017-Apr-19 14:24N 37°29' W 009°08'2 0.6
2017-Apr-19 11:06N 37°27' W 009°08'1 2.8
2017-Apr-19 10:49N 37°28' W 009°07'1 2.9
2017-Apr-19 10:30N 37°29' W 009°08'0 0.5
2017-Apr-19 10:00N 37°29' W 009°07'1 1.4
2017-Apr-19 09:30N 37°28' W 009°07'8 1.7
2017-Apr-19 04:47N 37°20' W 009°06'3 9.2
2017-Apr-19 04:29N 37°18' W 009°05'18 8.7
2017-Apr-19 02:28N 37°00' W 009°00'4 8.8
2017-Apr-19 02:01N 36°59' W 008°56'5 9.1
2017-Apr-19 01:30N 36°60' W 008°50'4 9.0
2017-Apr-19 01:00N 37°01' W 008°45'5 9.1
2017-Apr-19 00:31N 37°03' W 008°40'5 9.2
2017-Apr-19 00:00N 37°05' W 008°34'4 7.8
2017-Apr-18 23:30N 37°08' W 008°32'0 0.1
2017-Apr-18 22:48N 37°08' W 008°32'0 0.0
2017-Apr-18 22:28N 37°08' W 008°32'0 0.0
2017-Apr-18 21:58N 37°08' W 008°32'0 0.0
2017-Apr-18 21:24N 37°08' W 008°32'0 0.0
2017-Apr-18 19:44N 37°08' W 008°32'0 0.0
2017-Apr-18 19:25N 37°08' W 008°32'0 0.0
2017-Apr-18 18:37N 37°08' W 008°32'0 0.0
2017-Apr-18 18:27N 37°08' W 008°32'  
Track history (hours):
 
Tides and Currents Weather Stations Pressure Air Temp Water Temp Dewpoint Dewpoint Depression Visibility Wind Speed Wind Dir Waves Ship Positions

Pires Coelho

Last reported at 2017-Apr-28 04:00 UTC. Time now 2017-Apr-28 04:16 UTC.
Position N 36°58' W 008°38'.

Length 27 m.

Type: Fishing. MMSI: 263236000.

Date/timePositionNaut miles runAvg speedWind from/ knotsBaromVisibWave heightAir tempDewpointWater temp
2017-Apr-28 04:00N 36°58' W 008°38'4 7.4
2017-Apr-28 03:30N 37°01' W 008°36'4 7.3
2017-Apr-28 03:00N 37°05' W 008°33'4 6.6
2017-Apr-28 02:27N 37°08' W 008°32'0 0.0
2017-Apr-28 01:56N 37°08' W 008°32'0 0.0
2017-Apr-28 01:26N 37°08' W 008°32'0 0.0
2017-Apr-28 00:58N 37°08' W 008°32'0 0.0
2017-Apr-28 00:28N 37°08' W 008°32'0 0.0
2017-Apr-27 23:58N 37°08' W 008°32'0 0.0
2017-Apr-27 23:30N 37°08' W 008°32'0 0.0
2017-Apr-27 22:54N 37°08' W 008°32'0 0.0
2017-Apr-27 22:23N 37°08' W 008°32'0 0.0
2017-Apr-27 21:56N 37°08' W 008°32'0 0.0
2017-Apr-27 21:30N 37°08' W 008°32'0 0.0
2017-Apr-27 20:54N 37°08' W 008°32'0 0.0
2017-Apr-27 20:29N 37°08' W 008°32'0 0.2
2017-Apr-27 20:00N 37°08' W 008°32'0 0.0
2017-Apr-27 19:29N 37°08' W 008°32'0 0.1
2017-Apr-27 19:00N 37°08' W 008°32'4 8.6
2017-Apr-27 18:29N 37°04' W 008°32'5 9.8
2017-Apr-27 17:59N 36°59' W 008°34'5 9.5
2017-Apr-27 17:30N 36°54' W 008°35'5 9.1
2017-Apr-27 16:59N 36°50' W 008°37'1 1.4
2017-Apr-27 16:28N 36°49' W 008°36'2 3.6
2017-Apr-27 15:52N 36°50' W 008°39'1 2.6
2017-Apr-27 15:30N 36°49' W 008°38'1 2.9
2017-Apr-27 15:00N 36°49' W 008°36'1 0.6
2017-Apr-27 13:59N 36°48' W 008°36'2 3.0
2017-Apr-27 13:21N 36°49' W 008°38'1 2.9
2017-Apr-27 13:00N 36°49' W 008°39'1 3.0
2017-Apr-27 12:30N 36°49' W 008°41'1 3.0
2017-Apr-27 12:00N 36°49' W 008°43'1 2.8
2017-Apr-27 11:30N 36°49' W 008°45'1 2.8
2017-Apr-27 10:59N 36°50' W 008°47'1 2.8
2017-Apr-27 10:28N 36°50' W 008°48'1 1.9
2017-Apr-27 10:00N 36°49' W 008°49'3 2.2
2017-Apr-27 08:25N 36°49' W 008°45'1 2.9
2017-Apr-27 07:56N 36°49' W 008°43'1 2.9
2017-Apr-27 07:28N 36°49' W 008°42'9 2.8
2017-Apr-27 04:21N 36°47' W 008°31'1 3.0
2017-Apr-27 04:00N 36°47' W 008°29'8 2.0
2017-Apr-27 00:02N 36°46' W 008°20'0 2.9
2017-Apr-26 23:59N 36°46' W 008°20'6 3.0
2017-Apr-26 22:01N 36°47' W 008°27'1 3.1
2017-Apr-26 21:50N 36°47' W 008°28'1 3.0
2017-Apr-26 21:27N 36°47' W 008°29'1 2.8
2017-Apr-26 20:56N 36°47' W 008°31'2 3.9
2017-Apr-26 20:25N 36°48' W 008°33'1 1.6
2017-Apr-26 20:00N 36°48' W 008°34'2 2.5
2017-Apr-26 19:04N 36°48' W 008°36'0 2.9
2017-Apr-26 18:57N 36°48' W 008°37'2 3.0
2017-Apr-26 18:18N 36°48' W 008°39'1 2.9
2017-Apr-26 18:00N 36°48' W 008°40'2 3.0
2017-Apr-26 17:30N 36°49' W 008°42'1 2.9
2017-Apr-26 17:00N 36°49' W 008°40'1 2.9
2017-Apr-26 16:30N 36°49' W 008°38'1 2.9
2017-Apr-26 16:01N 36°49' W 008°37'2 3.4
2017-Apr-26 15:30N 36°48' W 008°35'2 0.2
2017-Apr-26 04:51N 36°51' W 008°34'3 9.2
2017-Apr-26 04:30N 36°54' W 008°34'5 9.4
2017-Apr-26 04:01N 36°58' W 008°33'5 9.2
2017-Apr-26 03:30N 37°03' W 008°32'5 9.3
2017-Apr-26 03:01N 37°07' W 008°32'0 0.9
2017-Apr-26 02:27N 37°08' W 008°32'0 0.0
2017-Apr-26 02:00N 37°08' W 008°32'0 0.0
2017-Apr-26 01:30N 37°08' W 008°32'0 0.0
2017-Apr-26 00:58N 37°08' W 008°32'0 0.0
2017-Apr-26 00:28N 37°08' W 008°32'0 0.0
2017-Apr-25 23:58N 37°08' W 008°32'0 0.0
2017-Apr-25 23:29N 37°08' W 008°32'0 0.0
2017-Apr-25 22:50N 37°08' W 008°32'0 0.0
2017-Apr-25 22:26N 37°08' W 008°32'0 0.0
2017-Apr-25 21:56N 37°08' W 008°32'0 0.0
2017-Apr-25 21:29N 37°08' W 008°32'0 0.0
2017-Apr-25 20:59N 37°08' W 008°32'0 0.0
2017-Apr-25 20:29N 37°08' W 008°32'0 0.0
2017-Apr-25 19:59N 37°08' W 008°32'0 0.0
2017-Apr-25 19:30N 37°08' W 008°32'0 0.0
2017-Apr-25 18:58N 37°08' W 008°32'4 8.2
2017-Apr-25 18:31N 37°04' W 008°32'5 9.5
2017-Apr-25 18:00N 36°60' W 008°35'5 9.6
2017-Apr-25 17:31N 36°56' W 008°37'5 9.1
2017-Apr-25 17:00N 36°51' W 008°40'2 4.0
2017-Apr-25 16:30N 36°50' W 008°41'1 2.0
2017-Apr-25 16:01N 36°49' W 008°42'1 2.6
2017-Apr-25 15:30N 36°49' W 008°44'1 2.7
2017-Apr-25 15:00N 36°49' W 008°45'3 2.8
2017-Apr-25 13:49N 36°49' W 008°49'1 2.9
2017-Apr-25 13:29N 36°49' W 008°51'1 3.0
2017-Apr-25 13:00N 36°49' W 008°52'1 2.9
2017-Apr-25 12:30N 36°49' W 008°54'3 0.9
2017-Apr-25 09:02N 36°48' W 008°58'1 2.9
2017-Apr-25 08:47N 36°48' W 008°57'1 2.9
2017-Apr-25 08:17N 36°49' W 008°55'1 2.9
2017-Apr-25 08:00N 36°49' W 008°54'2 2.9
2017-Apr-25 07:27N 36°49' W 008°52'1 2.9
2017-Apr-25 07:00N 36°49' W 008°51'1 2.9
2017-Apr-25 06:29N 36°49' W 008°49'1 2.8
2017-Apr-25 06:00N 36°49' W 008°47'2 3.2
2017-Apr-25 05:29N 36°48' W 008°45'2 4.7
2017-Apr-25 04:57N 36°46' W 008°47'0 0.2
2017-Apr-25 04:29N 36°46' W 008°46'1 2.9
2017-Apr-25 04:00N 36°47' W 008°48'3 2.9
2017-Apr-25 03:05N 36°47' W 008°52'0 2.9
2017-Apr-25 03:00N 36°47' W 008°52'4 0.9
2017-Apr-24 22:48N 36°47' W 008°56'1 3.0
2017-Apr-24 22:30N 36°47' W 008°55'1 2.9
2017-Apr-24 22:00N 36°47' W 008°53'1 3.0
2017-Apr-24 21:30N 36°46' W 008°52'2 3.0
2017-Apr-24 20:59N 36°46' W 008°50'2 3.9
2017-Apr-24 20:31N 36°47' W 008°47'3 5.0
2017-Apr-24 19:58N 36°49' W 008°49'0 0.6
2017-Apr-24 19:30N 36°49' W 008°49'1 2.9
2017-Apr-24 19:00N 36°49' W 008°51'1 2.9
2017-Apr-24 18:30N 36°49' W 008°53'1 2.9
2017-Apr-24 18:00N 36°49' W 008°55'1 0.1
2017-Apr-24 12:41N 36°49' W 008°54'1 2.9
2017-Apr-24 12:15N 36°49' W 008°52'1 3.0
2017-Apr-24 12:00N 36°49' W 008°51'1 2.9
2017-Apr-24 11:30N 36°49' W 008°50'2 3.0
2017-Apr-24 11:01N 36°49' W 008°48'1 1.1
2017-Apr-24 10:27N 36°48' W 008°48'0 0.7
2017-Apr-24 10:01N 36°48' W 008°48'1 2.8
2017-Apr-24 09:29N 36°48' W 008°50'1 2.8
2017-Apr-24 09:00N 36°49' W 008°51'9 2.8
2017-Apr-24 05:53N 36°47' W 009°02'1 0.8
2017-Apr-24 04:53N 36°47' W 009°03'2 3.0
2017-Apr-24 04:22N 36°48' W 009°04'2 6.4
2017-Apr-24 04:00N 36°50' W 009°05'4 6.8
2017-Apr-24 03:25N 36°54' W 009°07'4 9.3
2017-Apr-24 03:01N 36°57' W 009°09'4 8.7
2017-Apr-24 02:30N 37°02' W 009°10'4 8.7
2017-Apr-24 02:00N 37°06' W 009°11'5 9.1
2017-Apr-24 01:29N 37°10' W 009°13'5 9.1
2017-Apr-24 00:57N 37°15' W 009°15'4 9.2
2017-Apr-24 00:31N 37°19' W 009°16'5 9.2
2017-Apr-24 00:00N 37°23' W 009°17'5 9.4
2017-Apr-23 23:28N 37°28' W 009°19'4 9.3
2017-Apr-23 23:00N 37°32' W 009°20'5 9.3
2017-Apr-23 22:30N 37°37' W 009°21'5 9.3
2017-Apr-23 21:59N 37°42' W 009°23'4 9.1
2017-Apr-23 21:30N 37°46' W 009°24'5 9.1
2017-Apr-23 21:00N 37°50' W 009°25'5 9.3
2017-Apr-23 20:30N 37°55' W 009°27'5 9.3
2017-Apr-23 20:00N 37°59' W 009°28'5 9.5
2017-Apr-23 19:30N 38°04' W 009°29'5 9.7
2017-Apr-23 19:00N 38°09' W 009°31'5 9.5
2017-Apr-23 18:30N 38°13' W 009°33'5 9.5
2017-Apr-23 18:00N 38°18' W 009°34'5 9.7
2017-Apr-23 17:30N 38°23' W 009°36'5 9.6
2017-Apr-23 17:00N 38°27' W 009°37'5 9.4
2017-Apr-23 16:30N 38°32' W 009°39'2 4.0
2017-Apr-23 16:00N 38°34' W 009°40'1 1.5
2017-Apr-23 15:30N 38°34' W 009°40'2 3.0
2017-Apr-23 15:00N 38°36' W 009°40'2 3.1
2017-Apr-23 14:31N 38°37' W 009°40'3 2.9
2017-Apr-23 13:30N 38°40' W 009°42'3 6.6
2017-Apr-23 13:00N 38°42' W 009°45'2 4.7
2017-Apr-23 12:30N 38°43' W 009°47'1 2.1
2017-Apr-23 12:01N 38°44' W 009°48'2 3.3
2017-Apr-23 11:28N 38°45' W 009°50'4 8.1
2017-Apr-23 11:00N 38°46' W 009°55'1 1.8
2017-Apr-23 10:30N 38°46' W 009°56'1 2.0
2017-Apr-23 10:00N 38°45' W 009°56'1 2.4
2017-Apr-23 09:29N 38°44' W 009°55'3 5.6
2017-Apr-23 09:00N 38°45' W 009°52'2 3.1
2017-Apr-23 08:30N 38°45' W 009°50'1 3.0
2017-Apr-23 08:01N 38°45' W 009°48'1 2.8
2017-Apr-23 07:30N 38°43' W 009°47'2 3.1
2017-Apr-23 07:00N 38°43' W 009°45'1 2.3
2017-Apr-23 06:30N 38°42' W 009°44'1 2.5
2017-Apr-23 06:00N 38°42' W 009°43'2 5.0
2017-Apr-23 05:30N 38°40' W 009°40'4 7.7
2017-Apr-23 05:00N 38°38' W 009°36'4 7.4
2017-Apr-23 04:30N 38°35' W 009°33'4 7.6
2017-Apr-23 04:00N 38°33' W 009°29'4 7.8
2017-Apr-23 03:30N 38°31' W 009°25'4 7.9
2017-Apr-23 03:00N 38°28' W 009°21'4 8.3
2017-Apr-23 02:29N 38°26' W 009°16'4 9.2
2017-Apr-23 02:00N 38°24' W 009°11'4 8.7
2017-Apr-23 01:30N 38°26' W 009°07'0 0.2
2017-Apr-23 01:00N 38°26' W 009°07'0 0.0
2017-Apr-23 00:28N 38°26' W 009°07'0 0.0
2017-Apr-22 23:58N 38°26' W 009°07'0 0.0
2017-Apr-22 23:30N 38°26' W 009°07'0 0.0
2017-Apr-22 22:58N 38°26' W 009°07'0 0.0
2017-Apr-22 22:30N 38°26' W 009°07'0 0.0
2017-Apr-22 21:55N 38°26' W 009°07'0 0.0
2017-Apr-22 21:28N 38°26' W 009°07'0 0.0
2017-Apr-22 20:53N 38°26' W 009°07'0 0.0
2017-Apr-22 20:29N 38°26' W 009°07'0 0.0
2017-Apr-22 19:59N 38°26' W 009°07'0 0.0
2017-Apr-22 19:27N 38°26' W 009°07'0 0.0
2017-Apr-22 19:00N 38°26' W 009°07'0 0.0
2017-Apr-22 18:30N 38°26' W 009°07'0 0.0
2017-Apr-22 18:00N 38°26' W 009°07'0 0.0
2017-Apr-22 17:30N 38°26' W 009°07'0 0.0
2017-Apr-22 17:00N 38°26' W 009°07'0 0.0
2017-Apr-22 16:29N 38°26' W 009°07'0 0.0
2017-Apr-22 15:57N 38°26' W 009°07'0 0.0
2017-Apr-22 15:27N 38°26' W 009°07'0 0.0
2017-Apr-22 14:58N 38°26' W 009°07'0 0.0
2017-Apr-22 14:25N 38°26' W 009°07'0 0.0
2017-Apr-22 13:23N 38°26' W 009°07'0 0.0
2017-Apr-22 12:59N 38°26' W 009°07'0 0.1
2017-Apr-22 12:28N 38°26' W 009°07'0 0.0
2017-Apr-22 11:58N 38°26' W 009°07'0 0.0
2017-Apr-22 11:30N 38°26' W 009°07'0 0.0
2017-Apr-22 10:58N 38°26' W 009°07'0 0.0
2017-Apr-22 10:28N 38°26' W 009°07'0 0.0
2017-Apr-22 09:58N 38°26' W 009°07'0 0.0
2017-Apr-22 09:28N 38°26' W 009°07'0 0.0
2017-Apr-22 08:59N 38°26' W 009°07'0 0.0
2017-Apr-22 08:28N 38°26' W 009°07'0 0.0
2017-Apr-22 07:55N 38°26' W 009°07'0 0.0
2017-Apr-22 07:26N 38°26' W 009°07'0 0.0
2017-Apr-22 06:59N 38°26' W 009°07'0 0.0
2017-Apr-22 06:29N 38°26' W 009°07'0 0.0
2017-Apr-22 05:56N 38°26' W 009°07'0 0.0
2017-Apr-22 05:25N 38°26' W 009°07'0 0.0
2017-Apr-22 04:53N 38°26' W 009°07'0 0.0
2017-Apr-22 04:29N 38°26' W 009°07'0 0.0
2017-Apr-22 03:53N 38°26' W 009°07'0 0.0
2017-Apr-22 03:29N 38°26' W 009°07'0 0.0
2017-Apr-22 02:56N 38°26' W 009°07'0 0.0
2017-Apr-22 02:30N 38°26' W 009°07'0 0.0
2017-Apr-22 02:00N 38°26' W 009°07'0 0.0
2017-Apr-22 01:19N 38°26' W 009°07'0 0.0
2017-Apr-22 00:58N 38°26' W 009°07'0 0.0
2017-Apr-22 00:22N 38°26' W 009°07'0 0.0
2017-Apr-22 00:00N 38°26' W 009°07'0 0.1
2017-Apr-21 23:26N 38°26' W 009°07'1 1.9
2017-Apr-21 23:00N 38°26' W 009°06'4 8.9
2017-Apr-21 22:30N 38°24' W 009°12'4 8.9
2017-Apr-21 22:00N 38°26' W 009°17'5 9.6
2017-Apr-21 21:30N 38°29' W 009°22'5 9.8
2017-Apr-21 21:00N 38°32' W 009°27'5 9.8
2017-Apr-21 20:30N 38°35' W 009°31'5 9.5
2017-Apr-21 20:00N 38°38' W 009°36'4 8.8
2017-Apr-21 19:30N 38°40' W 009°41'0 0.9
2017-Apr-21 19:00N 38°41' W 009°41'1 2.7
2017-Apr-21 18:30N 38°42' W 009°42'1 2.7
2017-Apr-21 18:00N 38°42' W 009°44'1 2.8
2017-Apr-21 17:31N 38°43' W 009°46'1 2.9
2017-Apr-21 17:01N 38°43' W 009°47'1 2.9
2017-Apr-21 16:30N 38°45' W 009°48'2 3.2
2017-Apr-21 16:00N 38°45' W 009°50'0 0.6
2017-Apr-21 15:30N 38°45' W 009°50'1 2.9
2017-Apr-21 15:01N 38°45' W 009°48'1 2.9
2017-Apr-21 14:30N 38°43' W 009°47'3 2.8
2017-Apr-21 13:30N 38°42' W 009°44'1 2.7
2017-Apr-21 13:00N 38°42' W 009°42'2 3.2
2017-Apr-21 12:30N 38°40' W 009°41'0 0.3
2017-Apr-21 12:01N 38°40' W 009°41'1 2.4
2017-Apr-21 11:30N 38°41' W 009°42'1 2.9
2017-Apr-21 11:00N 38°42' W 009°43'1 2.8
2017-Apr-21 10:30N 38°42' W 009°45'2 3.2
2017-Apr-21 10:01N 38°43' W 009°47'3 5.7
2017-Apr-21 09:30N 38°45' W 009°50'0 0.2
2017-Apr-21 09:00N 38°45' W 009°50'1 2.8
2017-Apr-21 08:30N 38°44' W 009°48'1 2.8
2017-Apr-21 08:01N 38°43' W 009°47'1 2.8
2017-Apr-21 07:30N 38°43' W 009°45'1 2.7
2017-Apr-21 07:00N 38°42' W 009°44'1 2.8
2017-Apr-21 06:31N 38°42' W 009°42'2 3.3
2017-Apr-21 06:01N 38°40' W 009°41'2 4.5
2017-Apr-21 05:31N 38°39' W 009°39'4 7.3
2017-Apr-21 05:00N 38°36' W 009°36'4 7.2
2017-Apr-21 04:30N 38°33' W 009°33'4 8.5
2017-Apr-21 04:01N 38°30' W 009°30'5 9.2
2017-Apr-21 03:31N 38°26' W 009°26'5 9.2
2017-Apr-21 03:01N 38°22' W 009°22'5 9.6
2017-Apr-21 02:30N 38°19' W 009°18'5 9.7
2017-Apr-21 02:01N 38°15' W 009°15'510.0
2017-Apr-21 01:31N 38°11' W 009°11'510.1
2017-Apr-21 01:01N 38°07' W 009°07'510.1
2017-Apr-21 00:31N 38°03' W 009°02'5 9.8
2017-Apr-21 00:01N 37°60' W 008°58'510.0
2017-Apr-20 23:31N 37°56' W 008°54'2 3.5
2017-Apr-20 22:59N 37°57' W 008°52'0 0.0
2017-Apr-20 22:30N 37°57' W 008°52'0 0.0
2017-Apr-20 21:58N 37°57' W 008°52'0 0.0
2017-Apr-20 21:28N 37°57' W 008°52'0 0.0
2017-Apr-20 20:59N 37°57' W 008°52'0 0.0
2017-Apr-20 20:30N 37°57' W 008°52'0 0.2
2017-Apr-20 20:00N 37°57' W 008°52'0 1.0
2017-Apr-20 19:30N 37°57' W 008°52'5 9.7
2017-Apr-20 19:00N 37°53' W 008°56'5 9.8
2017-Apr-20 18:30N 37°49' W 009°00'5 9.8
2017-Apr-20 18:00N 37°45' W 009°04'5 9.6
2017-Apr-20 17:30N 37°42' W 009°08'510.1
2017-Apr-20 17:01N 37°38' W 009°13'510.2
2017-Apr-20 16:30N 37°35' W 009°17'6 0.3
2017-Apr-19 19:58N 37°30' W 009°13'4 8.9
2017-Apr-19 19:29N 37°29' W 009°07'0 0.9
2017-Apr-19 19:00N 37°29' W 009°08'1 2.9
2017-Apr-19 18:30N 37°27' W 009°08'0 0.1
2017-Apr-19 15:22N 37°27' W 009°08'2 1.6
2017-Apr-19 14:24N 37°29' W 009°08'2 0.6
2017-Apr-19 11:06N 37°27' W 009°08'1 2.8
2017-Apr-19 10:49N 37°28' W 009°07'1 2.9
2017-Apr-19 10:30N 37°29' W 009°08'0 0.5
2017-Apr-19 10:00N 37°29' W 009°07'1 1.4
2017-Apr-19 09:30N 37°28' W 009°07'8 1.7
2017-Apr-19 04:47N 37°20' W 009°06'3 9.2
2017-Apr-19 04:29N 37°18' W 009°05'18 8.7
2017-Apr-19 02:28N 37°00' W 009°00'4 8.8
2017-Apr-19 02:01N 36°59' W 008°56'5 9.1
2017-Apr-19 01:30N 36°60' W 008°50'4 9.0
2017-Apr-19 01:00N 37°01' W 008°45'5 9.1
2017-Apr-19 00:31N 37°03' W 008°40'5 9.2
2017-Apr-19 00:00N 37°05' W 008°34'4 7.8
2017-Apr-18 23:30N 37°08' W 008°32'0 0.1
2017-Apr-18 22:48N 37°08' W 008°32'0 0.0
2017-Apr-18 22:28N 37°08' W 008°32'0 0.0
2017-Apr-18 21:58N 37°08' W 008°32'0 0.0
2017-Apr-18 21:24N 37°08' W 008°32'0 0.0
2017-Apr-18 19:44N 37°08' W 008°32'0 0.0
2017-Apr-18 19:25N 37°08' W 008°32'0 0.0
2017-Apr-18 18:37N 37°08' W 008°32'0 0.0
2017-Apr-18 18:27N 37°08' W 008°32'  

Dump ship's entire track history